sensor_id;sensor_type;location;lat;lon;timestamp;temperature;humidity
15906;DHT22;8051;50.820;4.884;2023-09-08T00:01:44;19.10;99.90
15906;DHT22;8051;50.820;4.884;2023-09-08T00:04:12;19.10;99.90
15906;DHT22;8051;50.820;4.884;2023-09-08T00:06:40;19.00;99.90
15906;DHT22;8051;50.820;4.884;2023-09-08T00:09:10;19.00;99.90
15906;DHT22;8051;50.820;4.884;2023-09-08T00:11:38;19.00;99.90
15906;DHT22;8051;50.820;4.884;2023-09-08T00:14:06;19.00;99.90
15906;DHT22;8051;50.820;4.884;2023-09-08T00:16:33;18.90;99.90
15906;DHT22;8051;50.820;4.884;2023-09-08T00:19:01;18.90;99.90
15906;DHT22;8051;50.820;4.884;2023-09-08T00:21:28;18.90;99.90
15906;DHT22;8051;50.820;4.884;2023-09-08T00:23:56;18.80;99.90
15906;DHT22;8051;50.820;4.884;2023-09-08T00:26:23;18.80;99.90
15906;DHT22;8051;50.820;4.884;2023-09-08T00:28:51;18.80;99.90
15906;DHT22;8051;50.820;4.884;2023-09-08T00:31:20;18.70;99.90
15906;DHT22;8051;50.820;4.884;2023-09-08T00:33:47;18.70;99.90
15906;DHT22;8051;50.820;4.884;2023-09-08T00:36:15;18.70;99.90
15906;DHT22;8051;50.820;4.884;2023-09-08T00:38:42;18.60;99.90
15906;DHT22;8051;50.820;4.884;2023-09-08T00:41:09;18.60;99.90
15906;DHT22;8051;50.820;4.884;2023-09-08T00:43:37;18.60;99.90
15906;DHT22;8051;50.820;4.884;2023-09-08T00:46:04;18.50;99.90
15906;DHT22;8051;50.820;4.884;2023-09-08T00:48:34;18.50;99.90
15906;DHT22;8051;50.820;4.884;2023-09-08T00:51:03;18.50;99.90
15906;DHT22;8051;50.820;4.884;2023-09-08T00:53:33;18.40;99.90
15906;DHT22;8051;50.820;4.884;2023-09-08T00:56:01;18.40;99.90
15906;DHT22;8051;50.820;4.884;2023-09-08T00:58:29;18.40;99.90
15906;DHT22;8051;50.820;4.884;2023-09-08T01:00:56;18.40;99.90
15906;DHT22;8051;50.820;4.884;2023-09-08T01:03:24;18.30;99.90
15906;DHT22;8051;50.820;4.884;2023-09-08T01:05:54;18.30;99.90
15906;DHT22;8051;50.820;4.884;2023-09-08T01:08:22;18.30;99.90
15906;DHT22;8051;50.820;4.884;2023-09-08T01:10:49;18.20;99.90
15906;DHT22;8051;50.820;4.884;2023-09-08T01:13:17;18.20;99.90
15906;DHT22;8051;50.820;4.884;2023-09-08T01:15:44;18.20;99.90
15906;DHT22;8051;50.820;4.884;2023-09-08T01:18:12;18.20;99.90
15906;DHT22;8051;50.820;4.884;2023-09-08T01:20:56;18.10;99.90
15906;DHT22;8051;50.820;4.884;2023-09-08T01:23:35;18.10;99.90
15906;DHT22;8051;50.820;4.884;2023-09-08T01:26:09;18.10;99.90
15906;DHT22;8051;50.820;4.884;2023-09-08T01:28:38;18.10;99.90
15906;DHT22;8051;50.820;4.884;2023-09-08T01:31:07;18.10;99.90
15906;DHT22;8051;50.820;4.884;2023-09-08T01:33:35;18.10;99.90
15906;DHT22;8051;50.820;4.884;2023-09-08T01:36:03;18.10;99.90
15906;DHT22;8051;50.820;4.884;2023-09-08T01:38:31;18.10;99.90
15906;DHT22;8051;50.820;4.884;2023-09-08T01:40:58;18.00;99.90
15906;DHT22;8051;50.820;4.884;2023-09-08T01:43:29;18.00;99.90
15906;DHT22;8051;50.820;4.884;2023-09-08T01:45:56;18.00;99.90
15906;DHT22;8051;50.820;4.884;2023-09-08T01:48:23;18.00;99.90
15906;DHT22;8051;50.820;4.884;2023-09-08T01:50:51;17.90;99.90
15906;DHT22;8051;50.820;4.884;2023-09-08T01:53:18;18.00;99.90
15906;DHT22;8051;50.820;4.884;2023-09-08T01:55:46;17.90;99.90
15906;DHT22;8051;50.820;4.884;2023-09-08T01:58:13;17.90;99.90
15906;DHT22;8051;50.820;4.884;2023-09-08T02:00:42;17.90;99.90
15906;DHT22;8051;50.820;4.884;2023-09-08T02:03:09;17.80;99.90
15906;DHT22;8051;50.820;4.884;2023-09-08T02:05:37;17.80;99.90
15906;DHT22;8051;50.820;4.884;2023-09-08T02:08:05;17.80;99.90
15906;DHT22;8051;50.820;4.884;2023-09-08T02:10:33;17.80;99.90
15906;DHT22;8051;50.820;4.884;2023-09-08T02:13:00;17.80;99.90
15906;DHT22;8051;50.820;4.884;2023-09-08T02:15:28;17.70;99.90
15906;DHT22;8051;50.820;4.884;2023-09-08T02:17:57;17.70;99.90
15906;DHT22;8051;50.820;4.884;2023-09-08T02:20:24;17.70;99.90
15906;DHT22;8051;50.820;4.884;2023-09-08T02:22:54;17.70;99.90
15906;DHT22;8051;50.820;4.884;2023-09-08T02:25:23;17.70;99.90
15906;DHT22;8051;50.820;4.884;2023-09-08T02:27:51;17.70;99.90
15906;DHT22;8051;50.820;4.884;2023-09-08T02:30:18;17.70;99.90
15906;DHT22;8051;50.820;4.884;2023-09-08T02:32:46;17.70;99.90
15906;DHT22;8051;50.820;4.884;2023-09-08T02:35:15;17.60;99.90
15906;DHT22;8051;50.820;4.884;2023-09-08T02:37:42;17.60;99.90
15906;DHT22;8051;50.820;4.884;2023-09-08T02:40:10;17.60;99.90
15906;DHT22;8051;50.820;4.884;2023-09-08T02:42:37;17.60;99.90
15906;DHT22;8051;50.820;4.884;2023-09-08T02:45:05;17.60;99.90
15906;DHT22;8051;50.820;4.884;2023-09-08T02:47:33;17.60;99.90
15906;DHT22;8051;50.820;4.884;2023-09-08T02:50:01;17.50;99.90
15906;DHT22;8051;50.820;4.884;2023-09-08T02:52:30;17.50;99.90
15906;DHT22;8051;50.820;4.884;2023-09-08T02:54:57;17.50;99.90
15906;DHT22;8051;50.820;4.884;2023-09-08T02:57:25;17.50;99.90
15906;DHT22;8051;50.820;4.884;2023-09-08T02:59:52;17.40;99.90
15906;DHT22;8051;50.820;4.884;2023-09-08T03:02:22;17.40;99.90
15906;DHT22;8051;50.820;4.884;2023-09-08T03:04:50;17.40;99.90
15906;DHT22;8051;50.820;4.884;2023-09-08T03:07:18;17.40;99.90
15906;DHT22;8051;50.820;4.884;2023-09-08T03:09:46;17.40;99.90
15906;DHT22;8051;50.820;4.884;2023-09-08T03:12:14;17.40;99.90
15906;DHT22;8051;50.820;4.884;2023-09-08T03:14:41;17.40;99.90
15906;DHT22;8051;50.820;4.884;2023-09-08T03:17:09;17.40;99.90
15906;DHT22;8051;50.820;4.884;2023-09-08T03:19:36;17.30;99.90
15906;DHT22;8051;50.820;4.884;2023-09-08T03:22:04;17.30;99.90
15906;DHT22;8051;50.820;4.884;2023-09-08T03:24:31;17.30;99.90
15906;DHT22;8051;50.820;4.884;2023-09-08T03:27:00;17.30;99.90
15906;DHT22;8051;50.820;4.884;2023-09-08T03:29:28;17.30;99.90
15906;DHT22;8051;50.820;4.884;2023-09-08T03:31:55;17.20;99.90
15906;DHT22;8051;50.820;4.884;2023-09-08T03:34:22;17.20;99.90
15906;DHT22;8051;50.820;4.884;2023-09-08T03:36:51;17.20;99.90
15906;DHT22;8051;50.820;4.884;2023-09-08T03:39:19;17.10;99.90
15906;DHT22;8051;50.820;4.884;2023-09-08T03:41:46;17.20;99.90
15906;DHT22;8051;50.820;4.884;2023-09-08T03:44:15;17.10;99.90
15906;DHT22;8051;50.820;4.884;2023-09-08T03:46:43;17.10;99.90
15906;DHT22;8051;50.820;4.884;2023-09-08T03:49:11;17.10;99.90
15906;DHT22;8051;50.820;4.884;2023-09-08T03:51:38;17.10;99.90
15906;DHT22;8051;50.820;4.884;2023-09-08T03:54:06;17.10;99.90
15906;DHT22;8051;50.820;4.884;2023-09-08T03:56:34;17.10;99.90
15906;DHT22;8051;50.820;4.884;2023-09-08T03:59:01;17.00;99.90
15906;DHT22;8051;50.820;4.884;2023-09-08T04:01:30;17.00;99.90
15906;DHT22;8051;50.820;4.884;2023-09-08T04:03:58;17.00;99.90
15906;DHT22;8051;50.820;4.884;2023-09-08T04:06:25;17.00;99.90
15906;DHT22;8051;50.820;4.884;2023-09-08T04:08:54;16.90;99.90
15906;DHT22;8051;50.820;4.884;2023-09-08T04:11:21;16.90;99.90
15906;DHT22;8051;50.820;4.884;2023-09-08T04:13:49;16.90;99.90
15906;DHT22;8051;50.820;4.884;2023-09-08T04:16:16;16.80;99.90
15906;DHT22;8051;50.820;4.884;2023-09-08T04:18:45;16.80;99.90
15906;DHT22;8051;50.820;4.884;2023-09-08T04:21:12;16.80;99.90
15906;DHT22;8051;50.820;4.884;2023-09-08T04:23:40;16.80;99.90
15906;DHT22;8051;50.820;4.884;2023-09-08T04:26:07;16.70;99.90
15906;DHT22;8051;50.820;4.884;2023-09-08T04:28:35;16.70;99.90
15906;DHT22;8051;50.820;4.884;2023-09-08T04:31:02;16.70;99.90
15906;DHT22;8051;50.820;4.884;2023-09-08T04:33:30;16.70;99.90
15906;DHT22;8051;50.820;4.884;2023-09-08T04:35:59;16.70;99.90
15906;DHT22;8051;50.820;4.884;2023-09-08T04:38:27;16.70;99.90
15906;DHT22;8051;50.820;4.884;2023-09-08T04:40:54;16.70;99.90
15906;DHT22;8051;50.820;4.884;2023-09-08T04:43:21;16.60;99.90
15906;DHT22;8051;50.820;4.884;2023-09-08T04:45:49;16.60;99.90
15906;DHT22;8051;50.820;4.884;2023-09-08T04:48:16;16.60;99.90
15906;DHT22;8051;50.820;4.884;2023-09-08T04:50:44;16.60;99.90
15906;DHT22;8051;50.820;4.884;2023-09-08T04:53:13;16.60;99.90
15906;DHT22;8051;50.820;4.884;2023-09-08T04:55:40;16.60;99.90
15906;DHT22;8051;50.820;4.884;2023-09-08T04:58:08;16.60;99.90
15906;DHT22;8051;50.820;4.884;2023-09-08T05:00:37;16.60;99.90
15906;DHT22;8051;50.820;4.884;2023-09-08T05:03:05;16.60;99.90
15906;DHT22;8051;50.820;4.884;2023-09-08T05:05:33;16.60;99.90
15906;DHT22;8051;50.820;4.884;2023-09-08T05:08:00;16.60;99.90
15906;DHT22;8051;50.820;4.884;2023-09-08T05:10:29;16.50;99.90
15906;DHT22;8051;50.820;4.884;2023-09-08T05:12:57;16.60;99.90
15906;DHT22;8051;50.820;4.884;2023-09-08T05:15:24;16.60;99.90
15906;DHT22;8051;50.820;4.884;2023-09-08T05:17:52;16.60;99.90
15906;DHT22;8051;50.820;4.884;2023-09-08T05:20:19;16.60;99.90
15906;DHT22;8051;50.820;4.884;2023-09-08T05:22:46;16.60;99.90
15906;DHT22;8051;50.820;4.884;2023-09-08T05:25:14;16.60;99.90
15906;DHT22;8051;50.820;4.884;2023-09-08T05:27:43;16.70;99.90
15906;DHT22;8051;50.820;4.884;2023-09-08T05:30:12;16.70;99.90
15906;DHT22;8051;50.820;4.884;2023-09-08T05:32:39;16.70;99.90
15906;DHT22;8051;50.820;4.884;2023-09-08T05:35:07;16.80;99.90
15906;DHT22;8051;50.820;4.884;2023-09-08T05:37:35;16.80;99.90
15906;DHT22;8051;50.820;4.884;2023-09-08T05:40:03;16.90;99.90
15906;DHT22;8051;50.820;4.884;2023-09-08T05:42:31;16.90;99.90
15906;DHT22;8051;50.820;4.884;2023-09-08T05:45:00;17.00;99.90
15906;DHT22;8051;50.820;4.884;2023-09-08T05:47:27;17.10;99.90
15906;DHT22;8051;50.820;4.884;2023-09-08T05:49:55;17.10;99.90
15906;DHT22;8051;50.820;4.884;2023-09-08T05:52:22;17.20;99.90
15906;DHT22;8051;50.820;4.884;2023-09-08T05:54:49;17.20;99.90
15906;DHT22;8051;50.820;4.884;2023-09-08T05:57:17;17.30;99.90
15906;DHT22;8051;50.820;4.884;2023-09-08T05:59:44;17.40;99.90
15906;DHT22;8051;50.820;4.884;2023-09-08T06:02:13;17.50;99.90
15906;DHT22;8051;50.820;4.884;2023-09-08T06:04:41;17.60;99.90
15906;DHT22;8051;50.820;4.884;2023-09-08T06:07:08;17.60;99.90
15906;DHT22;8051;50.820;4.884;2023-09-08T06:09:35;17.70;99.90
15906;DHT22;8051;50.820;4.884;2023-09-08T06:12:04;17.80;99.90
15906;DHT22;8051;50.820;4.884;2023-09-08T06:14:31;17.90;99.90
15906;DHT22;8051;50.820;4.884;2023-09-08T06:16:59;18.00;99.90
15906;DHT22;8051;50.820;4.884;2023-09-08T06:19:28;18.10;99.90
15906;DHT22;8051;50.820;4.884;2023-09-08T06:21:55;18.20;99.90
15906;DHT22;8051;50.820;4.884;2023-09-08T06:24:23;18.30;99.90
15906;DHT22;8051;50.820;4.884;2023-09-08T06:26:50;18.40;99.90
15906;DHT22;8051;50.820;4.884;2023-09-08T06:29:18;18.60;99.90
15906;DHT22;8051;50.820;4.884;2023-09-08T06:31:45;18.70;99.90
15906;DHT22;8051;50.820;4.884;2023-09-08T06:34:12;18.80;99.90
15906;DHT22;8051;50.820;4.884;2023-09-08T06:36:41;18.90;99.90
15906;DHT22;8051;50.820;4.884;2023-09-08T06:39:09;19.10;99.90
15906;DHT22;8051;50.820;4.884;2023-09-08T06:41:36;19.10;99.90
15906;DHT22;8051;50.820;4.884;2023-09-08T06:44:05;19.30;99.90
15906;DHT22;8051;50.820;4.884;2023-09-08T06:46:32;19.30;99.90
15906;DHT22;8051;50.820;4.884;2023-09-08T06:49:00;19.40;99.90
15906;DHT22;8051;50.820;4.884;2023-09-08T06:51:27;19.50;99.90
15906;DHT22;8051;50.820;4.884;2023-09-08T06:53:56;19.60;99.90
15906;DHT22;8051;50.820;4.884;2023-09-08T06:56:26;19.70;99.90
15906;DHT22;8051;50.820;4.884;2023-09-08T06:58:53;19.90;99.90
15906;DHT22;8051;50.820;4.884;2023-09-08T07:01:21;19.90;99.90
15906;DHT22;8051;50.820;4.884;2023-09-08T07:03:49;20.10;99.90
15906;DHT22;8051;50.820;4.884;2023-09-08T07:06:16;20.20;99.90
15906;DHT22;8051;50.820;4.884;2023-09-08T07:08:44;20.30;99.90
15906;DHT22;8051;50.820;4.884;2023-09-08T07:11:13;20.40;99.90
15906;DHT22;8051;50.820;4.884;2023-09-08T07:13:40;20.50;99.90
15906;DHT22;8051;50.820;4.884;2023-09-08T07:16:07;20.60;99.90
15906;DHT22;8051;50.820;4.884;2023-09-08T07:18:34;20.70;99.90
15906;DHT22;8051;50.820;4.884;2023-09-08T07:21:04;20.80;99.90
15906;DHT22;8051;50.820;4.884;2023-09-08T07:23:32;20.90;99.90
15906;DHT22;8051;50.820;4.884;2023-09-08T07:26:01;20.90;99.90
15906;DHT22;8051;50.820;4.884;2023-09-08T07:28:30;21.10;99.90
15906;DHT22;8051;50.820;4.884;2023-09-08T07:31:01;21.10;99.90
15906;DHT22;8051;50.820;4.884;2023-09-08T07:33:29;21.30;99.90
15906;DHT22;8051;50.820;4.884;2023-09-08T07:35:56;21.40;99.90
15906;DHT22;8051;50.820;4.884;2023-09-08T07:38:24;21.50;99.90
15906;DHT22;8051;50.820;4.884;2023-09-08T07:40:52;21.50;99.90
15906;DHT22;8051;50.820;4.884;2023-09-08T07:43:19;21.70;99.90
15906;DHT22;8051;50.820;4.884;2023-09-08T07:45:48;21.80;99.90
15906;DHT22;8051;50.820;4.884;2023-09-08T07:48:15;21.90;99.90
15906;DHT22;8051;50.820;4.884;2023-09-08T07:50:42;22.00;99.90
15906;DHT22;8051;50.820;4.884;2023-09-08T07:53:10;22.10;99.90
15906;DHT22;8051;50.820;4.884;2023-09-08T07:55:37;22.20;99.90
15906;DHT22;8051;50.820;4.884;2023-09-08T07:58:05;22.30;99.90
15906;DHT22;8051;50.820;4.884;2023-09-08T08:00:32;22.40;99.90
15906;DHT22;8051;50.820;4.884;2023-09-08T08:03:01;22.50;99.90
15906;DHT22;8051;50.820;4.884;2023-09-08T08:05:29;22.60;99.90
15906;DHT22;8051;50.820;4.884;2023-09-08T08:07:56;22.80;99.90
15906;DHT22;8051;50.820;4.884;2023-09-08T08:10:24;22.80;99.90
15906;DHT22;8051;50.820;4.884;2023-09-08T08:12:52;22.90;99.90
15906;DHT22;8051;50.820;4.884;2023-09-08T08:15:20;23.00;99.90
15906;DHT22;8051;50.820;4.884;2023-09-08T08:17:48;23.10;99.90
15906;DHT22;8051;50.820;4.884;2023-09-08T08:20:17;23.20;99.90
15906;DHT22;8051;50.820;4.884;2023-09-08T08:22:45;23.30;99.90
15906;DHT22;8051;50.820;4.884;2023-09-08T08:25:13;23.50;99.90
15906;DHT22;8051;50.820;4.884;2023-09-08T08:27:40;23.50;99.90
15906;DHT22;8051;50.820;4.884;2023-09-08T08:30:09;23.50;99.90
15906;DHT22;8051;50.820;4.884;2023-09-08T08:32:37;23.60;99.90
15906;DHT22;8051;50.820;4.884;2023-09-08T08:35:05;23.60;99.90
15906;DHT22;8051;50.820;4.884;2023-09-08T08:37:34;23.80;99.90
15906;DHT22;8051;50.820;4.884;2023-09-08T08:40:01;23.90;99.90
15906;DHT22;8051;50.820;4.884;2023-09-08T08:42:31;24.00;99.90
15906;DHT22;8051;50.820;4.884;2023-09-08T08:44:59;24.00;99.90
15906;DHT22;8051;50.820;4.884;2023-09-08T08:47:27;24.10;99.90
15906;DHT22;8051;50.820;4.884;2023-09-08T08:49:56;24.10;99.90
15906;DHT22;8051;50.820;4.884;2023-09-08T08:52:26;24.10;99.90
15906;DHT22;8051;50.820;4.884;2023-09-08T08:54:55;24.10;99.90
15906;DHT22;8051;50.820;4.884;2023-09-08T08:57:23;24.20;99.90
15906;DHT22;8051;50.820;4.884;2023-09-08T08:59:53;24.30;99.90
15906;DHT22;8051;50.820;4.884;2023-09-08T09:02:21;24.30;99.90
15906;DHT22;8051;50.820;4.884;2023-09-08T09:04:49;24.30;99.90
15906;DHT22;8051;50.820;4.884;2023-09-08T09:07:18;24.40;99.90
15906;DHT22;8051;50.820;4.884;2023-09-08T09:09:47;24.50;99.90
15906;DHT22;8051;50.820;4.884;2023-09-08T09:12:16;24.60;99.90
15906;DHT22;8051;50.820;4.884;2023-09-08T09:14:45;24.80;99.90
15906;DHT22;8051;50.820;4.884;2023-09-08T09:17:14;24.80;99.90
15906;DHT22;8051;50.820;4.884;2023-09-08T09:19:42;24.80;99.90
15906;DHT22;8051;50.820;4.884;2023-09-08T09:22:09;24.80;99.90
15906;DHT22;8051;50.820;4.884;2023-09-08T09:24:38;24.80;99.90
15906;DHT22;8051;50.820;4.884;2023-09-08T09:27:07;24.90;99.90
15906;DHT22;8051;50.820;4.884;2023-09-08T09:29:44;24.90;99.90
15906;DHT22;8051;50.820;4.884;2023-09-08T09:32:12;25.00;99.90
15906;DHT22;8051;50.820;4.884;2023-09-08T09:34:48;25.10;99.90
15906;DHT22;8051;50.820;4.884;2023-09-08T09:37:17;25.30;99.90
15906;DHT22;8051;50.820;4.884;2023-09-08T09:39:49;25.40;99.90
15906;DHT22;8051;50.820;4.884;2023-09-08T09:42:17;25.50;99.90
15906;DHT22;8051;50.820;4.884;2023-09-08T09:44:47;25.60;99.90
15906;DHT22;8051;50.820;4.884;2023-09-08T09:47:16;25.80;99.90
15906;DHT22;8051;50.820;4.884;2023-09-08T09:49:44;25.90;99.90
15906;DHT22;8051;50.820;4.884;2023-09-08T09:52:12;25.90;99.90
15906;DHT22;8051;50.820;4.884;2023-09-08T09:54:41;25.90;99.90
15906;DHT22;8051;50.820;4.884;2023-09-08T09:57:11;26.00;99.90
15906;DHT22;8051;50.820;4.884;2023-09-08T09:59:40;26.10;99.90
15906;DHT22;8051;50.820;4.884;2023-09-08T10:02:12;26.10;99.90
15906;DHT22;8051;50.820;4.884;2023-09-08T10:04:40;26.20;99.90
15906;DHT22;8051;50.820;4.884;2023-09-08T10:07:08;26.20;99.90
15906;DHT22;8051;50.820;4.884;2023-09-08T10:09:36;26.40;99.90
15906;DHT22;8051;50.820;4.884;2023-09-08T10:12:05;26.50;99.90
15906;DHT22;8051;50.820;4.884;2023-09-08T10:14:35;26.60;99.90
15906;DHT22;8051;50.820;4.884;2023-09-08T10:17:04;26.60;99.90
15906;DHT22;8051;50.820;4.884;2023-09-08T10:19:35;26.50;99.90
15906;DHT22;8051;50.820;4.884;2023-09-08T10:22:10;26.50;99.90
15906;DHT22;8051;50.820;4.884;2023-09-08T10:24:40;26.60;99.90
15906;DHT22;8051;50.820;4.884;2023-09-08T10:27:09;26.70;99.90
15906;DHT22;8051;50.820;4.884;2023-09-08T10:29:37;26.80;99.90
15906;DHT22;8051;50.820;4.884;2023-09-08T10:32:06;27.00;99.90
15906;DHT22;8051;50.820;4.884;2023-09-08T10:34:37;27.00;99.90
15906;DHT22;8051;50.820;4.884;2023-09-08T10:37:20;27.00;99.90
15906;DHT22;8051;50.820;4.884;2023-09-08T10:39:50;27.00;99.90
15906;DHT22;8051;50.820;4.884;2023-09-08T10:42:24;27.10;99.90
15906;DHT22;8051;50.820;4.884;2023-09-08T10:45:02;27.20;99.90
15906;DHT22;8051;50.820;4.884;2023-09-08T10:47:55;27.20;99.90
15906;DHT22;8051;50.820;4.884;2023-09-08T10:50:31;27.30;99.90
15906;DHT22;8051;50.820;4.884;2023-09-08T10:53:07;27.40;99.90
15906;DHT22;8051;50.820;4.884;2023-09-08T10:55:39;27.50;99.90
15906;DHT22;8051;50.820;4.884;2023-09-08T10:58:07;27.40;99.90
15906;DHT22;8051;50.820;4.884;2023-09-08T11:00:46;27.50;99.90
15906;DHT22;8051;50.820;4.884;2023-09-08T11:03:14;27.50;99.90
15906;DHT22;8051;50.820;4.884;2023-09-08T11:05:55;27.70;99.90
15906;DHT22;8051;50.820;4.884;2023-09-08T11:08:23;27.70;99.90
15906;DHT22;8051;50.820;4.884;2023-09-08T11:10:51;27.90;99.90
15906;DHT22;8051;50.820;4.884;2023-09-08T11:13:18;27.90;99.90
15906;DHT22;8051;50.820;4.884;2023-09-08T11:15:46;28.00;99.90
15906;DHT22;8051;50.820;4.884;2023-09-08T11:18:13;28.00;99.90
15906;DHT22;8051;50.820;4.884;2023-09-08T11:20:41;27.90;99.90
15906;DHT22;8051;50.820;4.884;2023-09-08T11:23:12;27.90;99.90
15906;DHT22;8051;50.820;4.884;2023-09-08T11:25:40;27.80;99.90
15906;DHT22;8051;50.820;4.884;2023-09-08T11:28:08;27.90;99.90
15906;DHT22;8051;50.820;4.884;2023-09-08T11:30:35;28.00;99.90
15906;DHT22;8051;50.820;4.884;2023-09-08T11:33:03;28.00;99.90
15906;DHT22;8051;50.820;4.884;2023-09-08T11:35:32;28.20;99.90
15906;DHT22;8051;50.820;4.884;2023-09-08T11:38:00;28.20;99.90
15906;DHT22;8051;50.820;4.884;2023-09-08T11:40:32;28.30;99.90
15906;DHT22;8051;50.820;4.884;2023-09-08T11:43:03;28.40;99.90
15906;DHT22;8051;50.820;4.884;2023-09-08T11:45:33;28.40;99.90
15906;DHT22;8051;50.820;4.884;2023-09-08T11:48:01;28.40;99.90
15906;DHT22;8051;50.820;4.884;2023-09-08T11:50:29;28.30;99.90
15906;DHT22;8051;50.820;4.884;2023-09-08T11:52:57;28.30;99.90
15906;DHT22;8051;50.820;4.884;2023-09-08T11:55:25;28.40;99.90
15906;DHT22;8051;50.820;4.884;2023-09-08T11:57:55;28.40;99.90
15906;DHT22;8051;50.820;4.884;2023-09-08T12:00:25;28.50;99.90
15906;DHT22;8051;50.820;4.884;2023-09-08T12:02:54;28.60;99.90
15906;DHT22;8051;50.820;4.884;2023-09-08T12:05:22;28.70;99.90
15906;DHT22;8051;50.820;4.884;2023-09-08T12:07:51;28.80;99.90
15906;DHT22;8051;50.820;4.884;2023-09-08T12:10:18;28.90;99.90
15906;DHT22;8051;50.820;4.884;2023-09-08T12:12:47;29.00;99.90
15906;DHT22;8051;50.820;4.884;2023-09-08T12:15:32;29.00;99.90
15906;DHT22;8051;50.820;4.884;2023-09-08T12:18:00;29.00;99.90
15906;DHT22;8051;50.820;4.884;2023-09-08T12:20:28;29.00;99.90
15906;DHT22;8051;50.820;4.884;2023-09-08T12:23:00;28.90;99.90
15906;DHT22;8051;50.820;4.884;2023-09-08T12:25:28;29.00;99.90
15906;DHT22;8051;50.820;4.884;2023-09-08T12:27:57;29.10;99.90
15906;DHT22;8051;50.820;4.884;2023-09-08T12:30:24;29.10;99.90
15906;DHT22;8051;50.820;4.884;2023-09-08T12:32:58;29.20;99.90
15906;DHT22;8051;50.820;4.884;2023-09-08T12:35:26;29.30;99.90
15906;DHT22;8051;50.820;4.884;2023-09-08T12:37:57;29.30;99.90
15906;DHT22;8051;50.820;4.884;2023-09-08T12:40:26;29.40;99.90
15906;DHT22;8051;50.820;4.884;2023-09-08T12:42:54;29.30;99.90
15906;DHT22;8051;50.820;4.884;2023-09-08T12:45:22;29.30;99.90
15906;DHT22;8051;50.820;4.884;2023-09-08T12:47:50;29.40;99.90
15906;DHT22;8051;50.820;4.884;2023-09-08T12:50:19;29.50;99.90
15906;DHT22;8051;50.820;4.884;2023-09-08T12:52:46;29.40;99.90
15906;DHT22;8051;50.820;4.884;2023-09-08T12:55:14;29.50;99.90
15906;DHT22;8051;50.820;4.884;2023-09-08T12:57:42;29.60;99.90
15906;DHT22;8051;50.820;4.884;2023-09-08T13:00:10;29.70;99.90
15906;DHT22;8051;50.820;4.884;2023-09-08T13:02:38;29.80;99.90
15906;DHT22;8051;50.820;4.884;2023-09-08T13:05:06;29.90;99.90
15906;DHT22;8051;50.820;4.884;2023-09-08T13:07:35;30.00;99.90
15906;DHT22;8051;50.820;4.884;2023-09-08T13:10:04;30.00;99.90
15906;DHT22;8051;50.820;4.884;2023-09-08T13:12:31;30.10;99.90
15906;DHT22;8051;50.820;4.884;2023-09-08T13:14:59;30.10;99.90
15906;DHT22;8051;50.820;4.884;2023-09-08T13:17:26;30.10;99.90
15906;DHT22;8051;50.820;4.884;2023-09-08T13:19:54;30.20;99.90
15906;DHT22;8051;50.820;4.884;2023-09-08T13:22:22;30.30;99.90
15906;DHT22;8051;50.820;4.884;2023-09-08T13:24:50;30.30;99.90
15906;DHT22;8051;50.820;4.884;2023-09-08T13:27:18;30.30;99.90
15906;DHT22;8051;50.820;4.884;2023-09-08T13:29:46;30.30;99.90
15906;DHT22;8051;50.820;4.884;2023-09-08T13:32:14;30.40;99.90
15906;DHT22;8051;50.820;4.884;2023-09-08T13:34:42;30.40;99.90
15906;DHT22;8051;50.820;4.884;2023-09-08T13:37:10;30.50;99.90
15906;DHT22;8051;50.820;4.884;2023-09-08T13:39:37;30.60;99.90
15906;DHT22;8051;50.820;4.884;2023-09-08T13:42:08;30.50;99.90
15906;DHT22;8051;50.820;4.884;2023-09-08T13:44:37;30.50;99.90
15906;DHT22;8051;50.820;4.884;2023-09-08T13:47:04;30.50;99.90
15906;DHT22;8051;50.820;4.884;2023-09-08T13:49:32;30.50;99.90
15906;DHT22;8051;50.820;4.884;2023-09-08T13:51:59;30.50;99.90
15906;DHT22;8051;50.820;4.884;2023-09-08T13:54:27;30.50;99.90
15906;DHT22;8051;50.820;4.884;2023-09-08T13:56:58;30.60;99.90
15906;DHT22;8051;50.820;4.884;2023-09-08T13:59:29;30.70;99.90
15906;DHT22;8051;50.820;4.884;2023-09-08T14:01:56;30.70;99.90
15906;DHT22;8051;50.820;4.884;2023-09-08T14:04:24;30.60;99.90
15906;DHT22;8051;50.820;4.884;2023-09-08T14:06:52;30.60;99.90
15906;DHT22;8051;50.820;4.884;2023-09-08T14:09:19;30.60;99.90
15906;DHT22;8051;50.820;4.884;2023-09-08T14:11:47;30.60;99.90
15906;DHT22;8051;50.820;4.884;2023-09-08T14:14:14;30.60;99.90
15906;DHT22;8051;50.820;4.884;2023-09-08T14:16:43;30.60;99.90
15906;DHT22;8051;50.820;4.884;2023-09-08T14:19:11;30.60;99.90
15906;DHT22;8051;50.820;4.884;2023-09-08T14:21:38;30.50;99.90
15906;DHT22;8051;50.820;4.884;2023-09-08T14:24:06;30.60;99.90
15906;DHT22;8051;50.820;4.884;2023-09-08T14:26:34;30.70;99.90
15906;DHT22;8051;50.820;4.884;2023-09-08T14:29:02;30.80;99.90
15906;DHT22;8051;50.820;4.884;2023-09-08T14:31:30;30.80;99.90
15906;DHT22;8051;50.820;4.884;2023-09-08T14:33:58;30.80;99.90
15906;DHT22;8051;50.820;4.884;2023-09-08T14:36:26;30.90;99.90
15906;DHT22;8051;50.820;4.884;2023-09-08T14:38:53;31.10;99.90
15906;DHT22;8051;50.820;4.884;2023-09-08T14:41:22;31.20;99.90
15906;DHT22;8051;50.820;4.884;2023-09-08T14:43:49;31.20;99.90
15906;DHT22;8051;50.820;4.884;2023-09-08T14:46:16;31.30;99.90
15906;DHT22;8051;50.820;4.884;2023-09-08T14:48:45;31.30;99.90
15906;DHT22;8051;50.820;4.884;2023-09-08T14:51:14;31.30;99.90
15906;DHT22;8051;50.820;4.884;2023-09-08T14:53:41;31.30;99.90
15906;DHT22;8051;50.820;4.884;2023-09-08T14:56:09;31.40;99.90
15906;DHT22;8051;50.820;4.884;2023-09-08T14:58:36;31.50;99.90
15906;DHT22;8051;50.820;4.884;2023-09-08T15:01:05;31.30;99.90
15906;DHT22;8051;50.820;4.884;2023-09-08T15:03:34;31.30;99.90
15906;DHT22;8051;50.820;4.884;2023-09-08T15:06:01;31.30;99.90
15906;DHT22;8051;50.820;4.884;2023-09-08T15:08:30;31.30;99.90
15906;DHT22;8051;50.820;4.884;2023-09-08T15:10:58;31.30;99.90
15906;DHT22;8051;50.820;4.884;2023-09-08T15:13:25;31.30;99.90
15906;DHT22;8051;50.820;4.884;2023-09-08T15:15:53;31.20;99.90
15906;DHT22;8051;50.820;4.884;2023-09-08T15:18:20;31.20;99.90
15906;DHT22;8051;50.820;4.884;2023-09-08T15:20:52;31.30;99.90
15906;DHT22;8051;50.820;4.884;2023-09-08T15:23:20;31.20;99.90
15906;DHT22;8051;50.820;4.884;2023-09-08T15:25:54;31.30;99.90
15906;DHT22;8051;50.820;4.884;2023-09-08T15:28:21;31.20;99.90
15906;DHT22;8051;50.820;4.884;2023-09-08T15:30:49;31.10;99.90
15906;DHT22;8051;50.820;4.884;2023-09-08T15:33:18;31.10;99.90
15906;DHT22;8051;50.820;4.884;2023-09-08T15:35:46;31.20;99.90
15906;DHT22;8051;50.820;4.884;2023-09-08T15:38:14;31.20;99.90
15906;DHT22;8051;50.820;4.884;2023-09-08T15:41:14;31.20;99.90
15906;DHT22;8051;50.820;4.884;2023-09-08T15:43:47;31.30;99.90
15906;DHT22;8051;50.820;4.884;2023-09-08T15:46:15;31.50;99.90
15906;DHT22;8051;50.820;4.884;2023-09-08T15:48:43;31.30;99.90
15906;DHT22;8051;50.820;4.884;2023-09-08T15:51:11;31.40;99.90
15906;DHT22;8051;50.820;4.884;2023-09-08T15:53:38;31.50;99.90